Eaton, Idaho
Current Conditions -  °F | °C
As of 12:53 PM on Thursday 23 Oct 2014 (Local Time) from KONO Reporting Station
Light Rain Light Rain  
Wind Chill: 56°   Ceiling: 7000
Heat Index: 56°   Visibility: 10mi
Dew Point: 48°   Wind: 9mph
Humidity: 75%   Direction: 120°ESE
Pressure: 30.03"   Gusts: NA
Location:  44.398°N, 116.943°W
Report Text: KONO 231853Z AUTO 12008KT 10SM -RA OVC070 13/09 A3003 RMK AO2 SLP167 P0002 T01330089
Loading
Personal Weather Stations






























Interactive Weather Map
Tropical Storm Tracking
New forecast layout! Learn more

10-Day Weather Forecast

Advertisements
Track Severe Weather on mobile